createdAt,value
2022-09-15T00:02:13.803Z,13.82
2022-09-15T00:04:40.354Z,13.91
2022-09-15T00:07:07.005Z,13.96
2022-09-15T00:09:33.563Z,13.95
2022-09-15T00:12:00.134Z,13.95
2022-09-15T00:14:26.652Z,13.99
2022-09-15T00:16:53.212Z,14.01
2022-09-15T00:19:19.669Z,13.99
2022-09-15T00:21:46.510Z,14.03
2022-09-15T00:24:13.044Z,13.94
2022-09-15T00:26:39.657Z,14.00
2022-09-15T00:29:06.189Z,14.03
2022-09-15T00:31:33.421Z,13.94
2022-09-15T00:34:04.941Z,13.85
2022-09-15T00:36:31.849Z,13.91
2022-09-15T00:38:58.915Z,13.85
2022-09-15T00:41:25.655Z,13.85
2022-09-15T00:43:56.658Z,13.96
2022-09-15T00:46:28.438Z,13.94
2022-09-15T00:49:09.341Z,13.92
2022-09-15T00:51:45.373Z,13.88
2022-09-15T00:54:17.537Z,13.88
2022-09-15T00:56:47.083Z,13.85
2022-09-15T00:59:18.907Z,13.68
2022-09-15T01:01:47.242Z,13.78
2022-09-15T01:04:15.735Z,13.69
2022-09-15T01:06:50.564Z,13.75
2022-09-15T01:09:26.995Z,13.66
2022-09-15T01:11:53.553Z,13.62
2022-09-15T01:14:20.046Z,13.60
2022-09-15T01:17:07.023Z,13.63
2022-09-15T01:19:52.320Z,13.62
2022-09-15T01:22:57.323Z,13.44
2022-09-15T01:25:48.566Z,13.47
2022-09-15T01:28:20.773Z,13.43
2022-09-15T01:30:55.779Z,13.41
2022-09-15T01:33:37.421Z,13.34
2022-09-15T01:36:09.921Z,13.34
2022-09-15T01:38:40.318Z,13.12
2022-09-15T01:41:14.412Z,13.26
2022-09-15T01:43:57.117Z,13.14
2022-09-15T01:46:26.553Z,13.13
2022-09-15T01:48:57.140Z,13.11
2022-09-15T01:51:26.787Z,12.93
2022-09-15T01:53:55.002Z,13.03
2022-09-15T01:56:21.627Z,12.84
2022-09-15T01:58:51.023Z,12.98
2022-09-15T02:01:28.247Z,12.91
2022-09-15T02:04:05.351Z,12.86
2022-09-15T02:06:39.712Z,12.94
2022-09-15T02:09:23.698Z,12.93
2022-09-15T02:12:19.963Z,12.91
2022-09-15T02:15:03.458Z,12.72
2022-09-15T02:17:32.650Z,12.79
2022-09-15T02:20:15.565Z,12.56
2022-09-15T02:22:47.598Z,12.73
2022-09-15T02:25:18.724Z,12.83
2022-09-15T02:27:51.273Z,12.83
2022-09-15T02:30:19.924Z,12.84
2022-09-15T02:32:56.266Z,12.82
2022-09-15T02:35:25.979Z,12.82
2022-09-15T02:37:53.690Z,12.69
2022-09-15T02:40:21.559Z,12.85
2022-09-15T02:43:03.717Z,12.72
2022-09-15T02:45:31.425Z,12.89
2022-09-15T02:47:58.845Z,12.85
2022-09-15T02:50:26.697Z,12.83
2022-09-15T02:52:56.821Z,12.92
2022-09-15T02:55:24.163Z,12.92
2022-09-15T02:57:50.685Z,12.84
2022-09-15T03:00:19.387Z,12.90
2022-09-15T03:02:51.953Z,12.92
2022-09-15T03:05:21.469Z,12.72
2022-09-15T03:07:48.538Z,12.91
2022-09-15T03:10:15.114Z,12.87
2022-09-15T03:12:44.504Z,12.83
2022-09-15T03:15:13.075Z,12.75
2022-09-15T03:17:41.874Z,12.90
2022-09-15T03:20:10.671Z,12.91
2022-09-15T03:22:37.493Z,12.84
2022-09-15T03:25:05.560Z,12.89
2022-09-15T03:27:33.193Z,12.78
2022-09-15T03:29:59.726Z,12.91
2022-09-15T03:32:26.249Z,12.91
2022-09-15T03:34:56.438Z,12.74
2022-09-15T03:37:25.299Z,12.92
2022-09-15T03:39:51.871Z,12.81
2022-09-15T03:42:18.665Z,12.85
2022-09-15T03:44:45.130Z,12.85
2022-09-15T03:47:11.601Z,12.73
2022-09-15T03:49:38.510Z,12.83
2022-09-15T03:52:05.168Z,12.84
2022-09-15T03:54:31.778Z,12.84
2022-09-15T03:56:58.474Z,12.81
2022-09-15T03:59:24.987Z,12.69
2022-09-15T04:01:51.685Z,12.84
2022-09-15T04:04:18.214Z,12.82
2022-09-15T04:06:44.990Z,12.76
2022-09-15T04:09:11.877Z,12.80
2022-09-15T04:11:39.561Z,12.81
2022-09-15T04:14:06.047Z,12.81
2022-09-15T04:16:32.585Z,12.65
2022-09-15T04:18:59.330Z,12.69
2022-09-15T04:21:26.752Z,12.71
2022-09-15T04:23:54.127Z,12.80
2022-09-15T04:26:26.127Z,12.68
2022-09-15T04:28:52.762Z,12.80
2022-09-15T04:31:20.425Z,12.80
2022-09-15T04:33:47.693Z,12.67
2022-09-15T04:36:17.790Z,12.83
2022-09-15T04:38:44.932Z,12.83
2022-09-15T04:41:12.325Z,12.67
2022-09-15T04:43:39.091Z,12.76
2022-09-15T04:46:06.679Z,12.84
2022-09-15T04:48:33.619Z,12.84
2022-09-15T04:51:21.191Z,12.74
2022-09-15T04:53:48.188Z,12.64
2022-09-15T04:56:21.188Z,12.84
2022-09-15T04:58:55.712Z,12.85
2022-09-15T05:01:29.512Z,12.85
2022-09-15T05:03:56.634Z,12.74
2022-09-15T05:06:27.406Z,12.87
2022-09-15T05:08:57.046Z,12.90
2022-09-15T05:11:24.861Z,12.65
2022-09-15T05:13:51.996Z,12.89
2022-09-15T05:16:26.086Z,12.89
2022-09-15T05:18:54.559Z,12.87
2022-09-15T05:21:23.399Z,12.88
2022-09-15T05:23:51.909Z,12.82
2022-09-15T05:26:21.268Z,12.86
2022-09-15T05:28:47.804Z,12.75
2022-09-15T05:31:20.392Z,12.92
2022-09-15T05:33:48.903Z,12.91
2022-09-15T05:36:17.312Z,12.95
2022-09-15T05:38:44.456Z,12.83
2022-09-15T05:41:12.650Z,12.84
2022-09-15T05:43:40.011Z,13.03
2022-09-15T05:46:07.709Z,13.08
2022-09-15T05:48:37.872Z,13.05
2022-09-15T05:51:05.121Z,13.13
2022-09-15T05:53:35.032Z,13.10
2022-09-15T05:56:05.134Z,13.17
2022-09-15T05:58:31.821Z,13.22
2022-09-15T06:01:05.435Z,13.20
2022-09-15T06:03:34.206Z,13.27
2022-09-15T06:06:02.591Z,13.05
2022-09-15T06:08:34.674Z,13.34
2022-09-15T06:11:06.047Z,13.28
2022-09-15T06:13:33.178Z,13.34
2022-09-15T06:16:06.644Z,13.40
2022-09-15T06:18:35.571Z,13.38
2022-09-15T06:21:10.045Z,13.47
2022-09-15T06:23:37.487Z,13.48
2022-09-15T06:26:06.496Z,13.50
2022-09-15T06:28:33.744Z,13.58
2022-09-15T06:31:00.237Z,13.58
2022-09-15T06:33:27.606Z,13.55
2022-09-15T06:35:54.292Z,13.69
2022-09-15T06:38:20.872Z,13.60
2022-09-15T06:41:08.257Z,13.77
2022-09-15T06:43:36.287Z,13.79
2022-09-15T06:46:14.799Z,13.69
2022-09-15T06:48:44.293Z,13.89
2022-09-15T06:51:15.425Z,13.94
2022-09-15T06:53:41.966Z,13.87
2022-09-15T06:56:14.785Z,14.01
2022-09-15T06:58:42.895Z,13.71
2022-09-15T07:01:19.442Z,14.07
2022-09-15T07:03:46.002Z,13.85
2022-09-15T07:06:13.031Z,14.14
2022-09-15T07:08:40.683Z,14.04
2022-09-15T07:11:08.465Z,14.04
2022-09-15T07:13:35.498Z,14.11
2022-09-15T07:16:04.795Z,14.30
2022-09-15T07:18:32.569Z,14.41
2022-09-15T07:21:01.108Z,14.44
2022-09-15T07:23:28.031Z,14.35
2022-09-15T07:26:12.183Z,14.45
2022-09-15T07:28:39.835Z,14.53
2022-09-15T07:31:07.700Z,14.43
2022-09-15T07:33:34.870Z,14.35
2022-09-15T07:36:02.860Z,14.51
2022-09-15T07:38:29.881Z,14.68
2022-09-15T07:41:04.297Z,14.72
2022-09-15T07:43:31.531Z,14.76
2022-09-15T07:45:59.146Z,14.80
2022-09-15T07:48:26.574Z,14.85
2022-09-15T07:50:53.430Z,14.67
2022-09-15T07:53:20.801Z,14.82
2022-09-15T07:55:53.287Z,14.90
2022-09-15T07:58:19.954Z,14.90
2022-09-15T08:00:47.478Z,14.96
2022-09-15T08:03:15.366Z,14.89
2022-09-15T08:05:45.420Z,15.04
2022-09-15T08:08:12.357Z,15.03
2022-09-15T08:10:42.209Z,15.01
2022-09-15T08:13:08.863Z,15.13
2022-09-15T08:15:38.811Z,15.16
2022-09-15T08:18:06.204Z,14.98
2022-09-15T08:20:33.446Z,15.14
2022-09-15T08:23:00.324Z,15.06
2022-09-15T08:25:26.815Z,15.21
2022-09-15T08:27:54.156Z,15.09
2022-09-15T08:30:21.301Z,15.40
2022-09-15T08:32:48.339Z,15.36
2022-09-15T08:35:16.709Z,15.46
2022-09-15T08:37:43.385Z,15.44
2022-09-15T08:40:32.363Z,15.49
2022-09-15T08:43:03.620Z,15.48
2022-09-15T08:45:45.013Z,15.49
2022-09-15T08:48:15.941Z,15.63
2022-09-15T08:50:47.607Z,15.72
2022-09-15T08:53:20.759Z,15.71
2022-09-15T08:55:52.566Z,15.81
2022-09-15T08:58:20.389Z,15.75
2022-09-15T09:00:51.801Z,15.72
2022-09-15T09:03:53.536Z,15.81
2022-09-15T09:06:47.321Z,15.86
2022-09-15T09:09:25.631Z,15.91
2022-09-15T09:12:05.483Z,15.93
2022-09-15T09:14:56.077Z,15.73
2022-09-15T09:17:41.285Z,15.96
2022-09-15T09:20:33.904Z,15.96
2022-09-15T09:23:04.214Z,16.03
2022-09-15T09:25:31.255Z,15.99
2022-09-15T09:27:58.642Z,16.11
2022-09-15T09:30:29.594Z,16.17
2022-09-15T09:33:24.935Z,16.30
2022-09-15T09:35:55.567Z,16.44
2022-09-15T09:38:41.713Z,16.37
2022-09-15T09:41:17.179Z,16.61
2022-09-15T09:43:47.461Z,16.74
2022-09-15T09:46:17.622Z,16.84
2022-09-15T09:48:50.137Z,16.89
2022-09-15T09:51:32.985Z,16.91
2022-09-15T09:54:16.358Z,17.02
2022-09-15T09:56:44.358Z,17.17
2022-09-15T09:59:47.440Z,17.26
2022-09-15T10:02:20.579Z,17.25
2022-09-15T10:05:16.851Z,17.24
2022-09-15T10:07:46.305Z,17.21
2022-09-15T10:10:24.937Z,17.22
2022-09-15T10:12:56.492Z,17.19
2022-09-15T10:15:32.277Z,17.40
2022-09-15T10:17:58.924Z,17.36
2022-09-15T10:20:45.633Z,17.62
2022-09-15T10:23:18.096Z,17.78
2022-09-15T10:26:01.055Z,17.89
2022-09-15T10:28:28.099Z,18.03
2022-09-15T10:31:13.307Z,18.25
2022-09-15T10:33:50.731Z,18.34
2022-09-15T10:36:31.898Z,18.43
2022-09-15T10:39:10.425Z,18.70
2022-09-15T10:41:58.870Z,18.82
2022-09-15T10:44:49.615Z,18.84
2022-09-15T10:47:49.477Z,18.99
2022-09-15T10:50:32.226Z,18.95
2022-09-15T10:53:31.680Z,18.95
2022-09-15T10:56:15.487Z,19.03
2022-09-15T10:59:06.549Z,19.07
2022-09-15T11:01:33.444Z,19.14
2022-09-15T11:04:24.930Z,19.29
2022-09-15T11:07:19.579Z,19.29
2022-09-15T11:09:57.402Z,19.06
2022-09-15T11:12:33.014Z,19.23
2022-09-15T11:15:05.495Z,19.16
2022-09-15T11:18:01.849Z,19.08
2022-09-15T11:20:39.246Z,19.10
2022-09-15T11:23:34.028Z,19.13
2022-09-15T11:26:07.909Z,19.01
2022-09-15T11:28:54.992Z,19.17
2022-09-15T11:31:41.981Z,19.26
2022-09-15T11:34:24.006Z,19.60
2022-09-15T11:37:14.017Z,19.86
2022-09-15T11:40:23.764Z,19.88
2022-09-15T11:43:03.565Z,19.79
2022-09-15T11:45:45.287Z,19.85
2022-09-15T11:48:23.972Z,19.67
2022-09-15T11:50:53.494Z,19.91
2022-09-15T11:53:43.743Z,20.02
2022-09-15T11:56:26.788Z,20.06
2022-09-15T11:59:21.161Z,20.14
2022-09-15T12:01:59.508Z,20.13
2022-09-15T12:04:31.355Z,20.18
2022-09-15T12:07:15.898Z,20.08
2022-09-15T12:09:42.654Z,20.12
2022-09-15T12:12:15.783Z,20.16
2022-09-15T12:14:44.946Z,20.25
2022-09-15T12:17:34.855Z,20.19
2022-09-15T12:20:12.521Z,20.36
2022-09-15T12:22:45.892Z,20.40
2022-09-15T12:25:19.988Z,20.33
2022-09-15T12:28:23.949Z,20.29
2022-09-15T12:31:29.276Z,20.14
2022-09-15T12:34:24.447Z,19.92
2022-09-15T12:36:54.559Z,19.99
2022-09-15T12:39:23.984Z,20.15
2022-09-15T12:41:53.721Z,20.05
2022-09-15T12:44:37.260Z,19.90
2022-09-15T12:47:17.256Z,20.03
2022-09-15T12:49:47.689Z,19.82
2022-09-15T12:52:15.938Z,19.55
2022-09-15T12:54:49.988Z,19.53
2022-09-15T12:57:49.623Z,19.48
2022-09-15T13:00:50.031Z,19.39
2022-09-15T13:06:24.122Z,19.39
2022-09-15T13:09:05.756Z,19.44
2022-09-15T13:11:38.585Z,19.49
2022-09-15T13:14:08.147Z,19.53
2022-09-15T13:16:40.668Z,19.55
2022-09-15T13:19:13.824Z,19.70
2022-09-15T13:21:43.873Z,19.99
2022-09-15T13:24:37.380Z,20.26
2022-09-15T13:27:07.414Z,20.44
2022-09-15T13:29:43.571Z,20.34
2022-09-15T13:32:31.973Z,20.53
2022-09-15T13:35:24.994Z,20.49
2022-09-15T13:38:21.244Z,20.45
2022-09-15T13:41:02.360Z,20.37
2022-09-15T13:43:59.796Z,20.46
2022-09-15T13:46:35.361Z,20.55
2022-09-15T13:49:32.159Z,20.65
2022-09-15T13:52:23.406Z,20.57
2022-09-15T13:55:12.608Z,20.59
2022-09-15T14:00:34.123Z,20.67
2022-09-15T14:03:10.460Z,20.89
2022-09-15T14:05:37.345Z,21.25
2022-09-15T14:08:05.865Z,21.57
2022-09-15T14:10:39.955Z,21.65
2022-09-15T14:13:06.475Z,21.53
2022-09-15T14:15:33.838Z,21.88
2022-09-15T14:18:00.505Z,21.98
2022-09-15T14:20:32.288Z,21.76
2022-09-15T14:23:00.347Z,21.61
2022-09-15T14:25:31.019Z,21.35
2022-09-15T14:27:57.767Z,21.13
2022-09-15T14:30:34.774Z,20.90
2022-09-15T14:33:02.798Z,20.65
2022-09-15T14:35:36.803Z,20.56
2022-09-15T14:38:03.730Z,20.38
2022-09-15T14:40:39.487Z,20.65
2022-09-15T14:43:26.789Z,20.68
2022-09-15T14:45:56.676Z,21.08
2022-09-15T14:48:26.849Z,21.24
2022-09-15T14:51:01.966Z,21.40
2022-09-15T14:53:31.170Z,21.65
2022-09-15T14:56:19.311Z,21.81
2022-09-15T14:58:52.721Z,22.00
2022-09-15T15:01:26.535Z,22.16
2022-09-15T15:04:10.229Z,22.38
2022-09-15T15:06:47.819Z,22.55
2022-09-15T15:09:34.570Z,22.56
2022-09-15T15:12:06.371Z,22.67
2022-09-15T15:14:34.651Z,22.42
2022-09-15T15:17:06.234Z,22.61
2022-09-15T15:19:38.076Z,22.51
2022-09-15T15:22:13.847Z,22.45
2022-09-15T15:24:44.141Z,22.24
2022-09-15T15:27:32.697Z,22.03
2022-09-15T15:30:26.694Z,21.99
2022-09-15T15:32:54.182Z,21.70
2022-09-15T15:35:21.367Z,21.61
2022-09-15T15:37:49.370Z,21.62
2022-09-15T15:40:23.451Z,21.52
2022-09-15T15:42:57.835Z,21.39
2022-09-15T15:45:32.542Z,21.24
2022-09-15T15:48:01.133Z,20.95
2022-09-15T15:50:28.286Z,20.73
2022-09-15T15:52:55.246Z,20.64
2022-09-15T15:55:24.467Z,20.52
2022-09-15T15:57:55.539Z,20.33
2022-09-15T16:00:32.904Z,20.38
2022-09-15T16:02:59.534Z,20.35
2022-09-15T16:05:28.014Z,20.21
2022-09-15T16:07:57.043Z,20.12
2022-09-15T16:10:27.992Z,19.97
2022-09-15T16:12:54.459Z,20.05
2022-09-15T16:15:21.623Z,20.11
2022-09-15T16:17:49.006Z,19.99
2022-09-15T16:20:16.334Z,20.02
2022-09-15T16:22:43.637Z,20.03
2022-09-15T16:25:17.187Z,19.95
2022-09-15T16:27:43.951Z,19.90
2022-09-15T16:30:13.976Z,19.77
2022-09-15T16:32:42.880Z,19.68
2022-09-15T16:35:21.686Z,19.46
2022-09-15T16:37:48.230Z,19.45
2022-09-15T16:40:15.306Z,19.47
2022-09-15T16:42:42.009Z,19.32
2022-09-15T16:45:35.168Z,19.24
2022-09-15T16:48:04.817Z,19.18
2022-09-15T16:50:31.587Z,19.08
2022-09-15T16:52:59.310Z,18.91
2022-09-15T16:55:38.965Z,18.75
2022-09-15T16:58:06.209Z,18.70
2022-09-15T17:00:36.065Z,18.83
2022-09-15T17:03:07.346Z,18.75
2022-09-15T17:05:39.397Z,18.69
2022-09-15T17:08:07.476Z,18.63
2022-09-15T17:10:34.845Z,18.52
2022-09-15T17:13:01.700Z,18.47
2022-09-15T17:15:36.669Z,18.42
2022-09-15T17:18:04.124Z,18.44
2022-09-15T17:20:31.720Z,18.42
2022-09-15T17:22:59.555Z,18.21
2022-09-15T17:25:33.882Z,18.32
2022-09-15T17:28:00.829Z,18.24
2022-09-15T17:30:30.209Z,18.14
2022-09-15T17:33:05.172Z,18.22
2022-09-15T17:35:34.489Z,17.93
2022-09-15T17:38:01.731Z,18.05
2022-09-15T17:40:28.950Z,18.09
2022-09-15T17:42:55.870Z,18.00
2022-09-15T17:45:28.331Z,17.92
2022-09-15T17:47:54.770Z,17.94
2022-09-15T17:50:23.542Z,17.60
2022-09-15T17:52:50.158Z,17.88
2022-09-15T17:55:27.206Z,17.83
2022-09-15T17:57:54.910Z,17.75
2022-09-15T18:00:22.490Z,17.61
2022-09-15T18:02:51.943Z,17.68
2022-09-15T18:05:29.652Z,17.66
2022-09-15T18:07:58.756Z,17.58
2022-09-15T18:10:26.591Z,17.62
2022-09-15T18:12:56.947Z,17.58
2022-09-15T18:15:29.651Z,17.38
2022-09-15T18:17:58.759Z,17.38
2022-09-15T18:20:28.426Z,17.42
2022-09-15T18:22:56.332Z,17.37
2022-09-15T18:25:38.555Z,17.22
2022-09-15T18:28:05.368Z,17.23
2022-09-15T18:30:41.127Z,17.06
2022-09-15T18:33:13.731Z,17.32
2022-09-15T18:35:41.192Z,17.15
2022-09-15T18:38:08.232Z,17.26
2022-09-15T18:40:34.760Z,17.11
2022-09-15T18:43:01.391Z,17.19
2022-09-15T18:45:28.708Z,17.12
2022-09-15T18:47:55.241Z,17.08
2022-09-15T18:50:23.987Z,17.09
2022-09-15T18:52:50.829Z,16.94
2022-09-15T18:55:20.223Z,17.10
2022-09-15T18:57:47.366Z,17.07
2022-09-15T19:00:19.894Z,16.91
2022-09-15T19:02:47.552Z,17.02
2022-09-15T19:05:15.670Z,17.03
2022-09-15T19:07:46.014Z,16.79
2022-09-15T19:10:14.431Z,16.87
2022-09-15T19:12:41.017Z,16.99
2022-09-15T19:15:11.075Z,16.97
2022-09-15T19:17:39.374Z,16.91
2022-09-15T19:20:07.469Z,16.93
2022-09-15T19:22:34.574Z,16.91
2022-09-15T19:25:01.266Z,16.82
2022-09-15T19:27:28.179Z,16.87
2022-09-15T19:29:54.774Z,16.51
2022-09-15T19:32:22.200Z,16.59
2022-09-15T19:34:48.995Z,16.75
2022-09-15T19:37:18.785Z,16.75
2022-09-15T19:39:46.235Z,16.65
2022-09-15T19:42:13.330Z,16.73
2022-09-15T19:44:41.224Z,16.57
2022-09-15T19:47:08.471Z,16.65
2022-09-15T19:49:35.166Z,16.53
2022-09-15T19:52:01.939Z,16.54
2022-09-15T19:54:30.750Z,16.53
2022-09-15T19:56:57.918Z,16.52
2022-09-15T19:59:27.519Z,16.49
2022-09-15T20:01:56.834Z,16.44
2022-09-15T20:04:23.426Z,16.37
2022-09-15T20:06:50.116Z,16.09
2022-09-15T20:09:17.035Z,16.24
2022-09-15T20:11:43.706Z,16.26
2022-09-15T20:14:12.292Z,16.16
2022-09-15T20:16:38.908Z,16.03
2022-09-15T20:19:06.164Z,16.20
2022-09-15T20:21:51.393Z,15.92
2022-09-15T20:24:20.313Z,16.13
2022-09-15T20:26:47.404Z,16.10
2022-09-15T20:29:14.381Z,15.84
2022-09-15T20:31:41.125Z,15.97
2022-09-15T20:34:08.228Z,15.80
2022-09-15T20:36:38.431Z,15.95
2022-09-15T20:39:09.330Z,15.89
2022-09-15T20:41:36.933Z,15.87
2022-09-15T20:44:03.755Z,15.86
2022-09-15T20:46:31.333Z,15.80
2022-09-15T20:48:58.010Z,15.85
2022-09-15T20:51:27.929Z,15.80
2022-09-15T20:53:56.896Z,15.52
2022-09-15T20:56:28.651Z,15.64
2022-09-15T20:58:58.432Z,15.70
2022-09-15T21:01:28.105Z,15.68
2022-09-15T21:03:55.521Z,15.60
2022-09-15T21:06:25.180Z,15.54
2022-09-15T21:08:52.071Z,15.54
2022-09-15T21:11:20.655Z,15.55
2022-09-15T21:13:48.540Z,15.45
2022-09-15T21:16:20.802Z,15.30
2022-09-15T21:18:48.306Z,15.42
2022-09-15T21:21:25.106Z,15.38
2022-09-15T21:23:54.753Z,15.27
2022-09-15T21:26:24.079Z,15.32
2022-09-15T21:28:50.890Z,15.16
2022-09-15T21:31:26.247Z,15.25
2022-09-15T21:33:54.224Z,15.23
2022-09-15T21:36:23.187Z,15.18
2022-09-15T21:38:51.563Z,15.08
2022-09-15T21:41:21.454Z,14.97
2022-09-15T21:43:48.719Z,14.99
2022-09-15T21:46:18.270Z,14.97
2022-09-15T21:48:48.054Z,14.81
2022-09-15T21:51:21.940Z,14.90
2022-09-15T21:53:52.105Z,14.80
2022-09-15T21:56:18.755Z,14.83
2022-09-15T21:58:45.594Z,14.72
2022-09-15T22:01:20.659Z,14.74
2022-09-15T22:03:50.663Z,14.51
2022-09-15T22:06:18.338Z,14.69
2022-09-15T22:09:41.305Z,14.64
2022-09-15T22:12:08.521Z,14.53
2022-09-15T22:14:35.217Z,14.53
2022-09-15T22:17:01.711Z,14.42
2022-09-15T22:19:29.180Z,14.54
2022-09-15T22:21:55.627Z,14.36
2022-09-15T22:24:22.201Z,14.48
2022-09-15T22:26:48.910Z,14.27
2022-09-15T22:29:15.429Z,14.38
2022-09-15T22:31:42.265Z,14.35
2022-09-15T22:34:09.036Z,14.34
2022-09-15T22:36:35.539Z,14.28
2022-09-15T22:39:05.292Z,14.27
2022-09-15T22:41:38.432Z,14.20
2022-09-15T22:44:05.942Z,14.06
2022-09-15T22:46:32.760Z,14.16
2022-09-15T22:48:59.871Z,14.13
2022-09-15T22:51:26.465Z,14.00
2022-09-15T22:53:54.712Z,14.11
2022-09-15T22:56:21.526Z,13.93
2022-09-15T22:58:49.703Z,13.96
2022-09-15T23:01:18.897Z,13.97
2022-09-15T23:04:07.019Z,13.92
2022-09-15T23:06:34.374Z,13.83
2022-09-15T23:09:06.441Z,13.81
2022-09-15T23:11:33.749Z,13.77
2022-09-15T23:14:01.303Z,13.66
2022-09-15T23:16:28.499Z,13.72
2022-09-15T23:18:58.150Z,13.71
2022-09-15T23:21:25.150Z,13.66
2022-09-15T23:23:54.053Z,13.63
2022-09-15T23:26:22.393Z,13.64
2022-09-15T23:28:51.815Z,13.67
2022-09-15T23:31:19.204Z,13.64
2022-09-15T23:33:46.896Z,13.62
2022-09-15T23:36:16.536Z,13.52
2022-09-15T23:38:45.228Z,13.46
2022-09-15T23:41:13.962Z,13.57
2022-09-15T23:43:43.769Z,13.55
2022-09-15T23:46:10.830Z,13.46
2022-09-15T23:48:37.810Z,13.51
2022-09-15T23:51:05.262Z,13.53
2022-09-15T23:53:31.944Z,13.39
2022-09-15T23:55:58.451Z,13.49
2022-09-15T23:58:25.160Z,13.38
